createdAt,value
2022-08-23T00:00:13.413Z,49.60
2022-08-23T00:03:00.222Z,49.50
2022-08-23T00:05:41.237Z,49.50
2022-08-23T00:08:28.175Z,49.60
2022-08-23T00:11:08.210Z,49.60
2022-08-23T00:13:55.144Z,49.60
2022-08-23T00:16:36.270Z,49.70
2022-08-23T00:19:26.148Z,49.70
2022-08-23T00:22:21.136Z,49.70
2022-08-23T00:25:08.162Z,49.80
2022-08-23T00:27:48.278Z,49.80
2022-08-23T00:30:35.175Z,49.80
2022-08-23T00:33:15.245Z,49.80
2022-08-23T00:36:02.166Z,49.90
2022-08-23T00:38:42.211Z,50.00
2022-08-23T00:41:29.144Z,50.10
2022-08-23T00:44:28.702Z,50.30
2022-08-23T00:47:35.150Z,50.30
2022-08-23T00:50:41.217Z,50.30
2022-08-23T00:53:34.180Z,50.60
2022-08-23T00:56:17.684Z,50.60
2022-08-23T00:59:04.168Z,50.50
2022-08-23T01:01:44.537Z,50.80
2022-08-23T01:04:35.160Z,51.00
2022-08-23T01:07:29.261Z,50.90
2022-08-23T01:10:29.168Z,51.00
2022-08-23T01:13:17.205Z,50.90
2022-08-23T01:16:14.165Z,50.90
2022-08-23T01:18:55.232Z,50.90
2022-08-23T01:21:55.187Z,50.80
2022-08-23T01:25:06.000Z,50.80
2022-08-23T01:27:52.168Z,50.70
2022-08-23T01:30:41.165Z,50.70
2022-08-23T01:33:29.172Z,50.70
2022-08-23T01:36:20.220Z,50.90
2022-08-23T01:39:08.161Z,50.90
2022-08-23T01:41:55.326Z,50.90
2022-08-23T01:44:35.164Z,50.90
2022-08-23T01:47:24.158Z,50.90
2022-08-23T01:50:05.221Z,51.00
2022-08-23T01:52:52.157Z,51.00
2022-08-23T01:55:34.265Z,51.00
2022-08-23T01:58:21.157Z,51.10
2022-08-23T02:01:04.653Z,51.00
2022-08-23T02:04:00.757Z,51.00
2022-08-23T02:06:59.164Z,51.10
2022-08-23T02:09:39.742Z,51.20
2022-08-23T02:12:28.198Z,51.20
2022-08-23T02:15:18.841Z,51.20
2022-08-23T02:18:05.157Z,51.20
2022-08-23T02:20:55.251Z,51.30
2022-08-23T02:23:49.164Z,51.30
2022-08-23T02:26:36.249Z,51.30
2022-08-23T02:29:23.185Z,51.20
2022-08-23T02:32:04.151Z,51.20
2022-08-23T02:35:05.387Z,51.30
2022-08-23T02:37:53.030Z,51.30
2022-08-23T02:40:33.190Z,51.40
2022-08-23T02:43:13.857Z,51.40
2022-08-23T02:46:00.210Z,51.40
2022-08-23T02:48:40.748Z,51.30
2022-08-23T02:51:28.190Z,51.40
2022-08-23T02:54:15.233Z,51.50
2022-08-23T02:56:58.279Z,51.40
2022-08-23T02:59:38.866Z,51.50
2022-08-23T03:02:25.235Z,51.50
2022-08-23T03:05:14.207Z,51.60
2022-08-23T03:08:01.310Z,51.60
2022-08-23T03:10:59.169Z,51.60
2022-08-23T03:13:39.533Z,51.50
2022-08-23T03:16:27.184Z,51.60
2022-08-23T03:19:08.268Z,51.60
2022-08-23T03:21:55.206Z,51.60
2022-08-23T03:24:36.141Z,51.70
2022-08-23T03:27:23.186Z,51.70
2022-08-23T03:30:03.272Z,51.70
2022-08-23T03:32:51.184Z,51.60
2022-08-23T03:35:31.284Z,51.60
2022-08-23T03:38:19.172Z,51.80
2022-08-23T03:41:06.193Z,51.90
2022-08-23T03:43:47.730Z,51.80
2022-08-23T03:46:34.399Z,52.00
2022-08-23T03:49:14.688Z,52.00
2022-08-23T03:52:07.201Z,52.00
2022-08-23T03:54:47.682Z,52.00
2022-08-23T03:57:34.168Z,52.10
2022-08-23T04:00:20.173Z,52.10
2022-08-23T04:03:08.233Z,52.20
2022-08-23T04:06:11.206Z,52.10
2022-08-23T04:08:54.612Z,52.20
2022-08-23T04:11:41.197Z,52.20
2022-08-23T04:14:21.751Z,52.10
2022-08-23T04:17:08.197Z,52.10
2022-08-23T04:19:55.325Z,52.00
2022-08-23T04:22:42.201Z,52.20
2022-08-23T04:25:34.719Z,52.30
2022-08-23T04:28:22.184Z,52.20
2022-08-23T04:31:02.397Z,52.30
2022-08-23T04:33:52.514Z,52.30
2022-08-23T04:36:39.210Z,52.40
2022-08-23T04:39:26.202Z,52.50
2022-08-23T04:42:18.456Z,52.50
2022-08-23T04:45:05.192Z,53.40
2022-08-23T04:47:49.302Z,52.50
2022-08-23T04:50:36.203Z,52.50
2022-08-23T04:53:20.849Z,52.50
2022-08-23T04:56:24.179Z,52.60
2022-08-23T04:59:04.315Z,52.70
2022-08-23T05:01:52.190Z,52.70
2022-08-23T05:04:32.256Z,52.70
2022-08-23T05:07:19.194Z,52.70
2022-08-23T05:09:59.265Z,52.90
2022-08-23T05:12:46.198Z,52.90
2022-08-23T05:15:28.240Z,53.00
2022-08-23T05:18:19.225Z,53.00
2022-08-23T05:21:07.220Z,53.00
2022-08-23T05:23:55.308Z,52.90
2022-08-23T05:26:35.204Z,52.90
2022-08-23T05:29:29.232Z,52.80
2022-08-23T05:32:10.672Z,52.80
2022-08-23T05:34:57.206Z,52.80
2022-08-23T05:37:38.700Z,52.80
2022-08-23T05:40:25.270Z,52.80
2022-08-23T05:43:13.681Z,52.80
2022-08-23T05:46:00.202Z,52.80
2022-08-23T05:48:53.213Z,52.70
2022-08-23T05:51:39.265Z,52.90
2022-08-23T05:54:27.220Z,52.80
2022-08-23T05:57:27.293Z,52.80
2022-08-23T06:00:22.228Z,52.70
2022-08-23T06:03:19.258Z,52.90
2022-08-23T06:06:07.201Z,52.90
2022-08-23T06:08:50.318Z,52.80
2022-08-23T06:11:37.200Z,52.80
2022-08-23T06:14:17.356Z,52.90
2022-08-23T06:17:04.214Z,52.80
2022-08-23T06:19:44.249Z,52.80
2022-08-23T06:22:54.211Z,52.80
2022-08-23T06:25:45.426Z,52.80
2022-08-23T06:28:27.269Z,52.70
2022-08-23T06:31:07.863Z,52.50
2022-08-23T06:34:08.263Z,52.60
2022-08-23T06:37:14.539Z,52.50
2022-08-23T06:40:17.836Z,52.50
2022-08-23T06:43:04.717Z,52.30
2022-08-23T06:46:05.206Z,52.10
2022-08-23T06:48:54.281Z,52.00
2022-08-23T06:51:40.213Z,52.00
2022-08-23T06:54:39.665Z,51.90
2022-08-23T06:57:42.208Z,51.80
2022-08-23T07:00:34.752Z,51.70
2022-08-23T07:03:39.234Z,51.70
2022-08-23T07:06:48.729Z,52.60
2022-08-23T07:09:35.230Z,51.60
2022-08-23T07:12:22.262Z,51.50
2022-08-23T07:15:03.228Z,51.40
2022-08-23T07:17:50.215Z,51.20
2022-08-23T07:20:37.249Z,51.00
2022-08-23T07:23:32.270Z,50.90
2022-08-23T07:26:23.862Z,50.60
2022-08-23T07:29:04.260Z,50.40
2022-08-23T07:31:55.323Z,50.30
2022-08-23T07:34:36.222Z,49.80
2022-08-23T07:37:23.282Z,49.00
2022-08-23T07:40:04.301Z,48.00
2022-08-23T07:42:51.291Z,47.30
2022-08-23T07:45:31.216Z,46.70
2022-08-23T07:48:37.113Z,46.10
2022-08-23T07:51:23.335Z,45.40
2022-08-23T07:54:13.230Z,44.70
2022-08-23T07:57:08.368Z,44.00
2022-08-23T08:00:10.253Z,43.60
2022-08-23T08:02:59.322Z,43.00
2022-08-23T08:06:04.233Z,42.70
2022-08-23T08:08:52.276Z,42.00
2022-08-23T08:11:41.273Z,41.60
2022-08-23T08:14:25.245Z,41.20
2022-08-23T08:17:13.229Z,40.90
2022-08-23T08:20:21.289Z,40.50
2022-08-23T08:23:26.225Z,40.20
2022-08-23T08:26:35.284Z,39.80
2022-08-23T08:29:23.235Z,39.60
2022-08-23T08:32:03.298Z,39.40
2022-08-23T08:34:50.241Z,39.20
2022-08-23T08:37:30.972Z,39.00
2022-08-23T08:40:18.284Z,39.00
2022-08-23T08:43:37.304Z,38.90
2022-08-23T08:46:38.300Z,38.90
2022-08-23T08:49:47.258Z,38.60
2022-08-23T08:52:41.195Z,38.30
2022-08-23T08:55:42.251Z,38.30
2022-08-23T08:58:52.192Z,39.00
2022-08-23T09:01:43.293Z,39.40
2022-08-23T09:04:37.264Z,39.80
2022-08-23T09:07:33.344Z,40.20
2022-08-23T09:10:53.257Z,40.40
2022-08-23T09:13:53.386Z,40.60
2022-08-23T09:17:09.277Z,40.70
2022-08-23T09:20:00.245Z,40.80
2022-08-23T09:22:59.256Z,40.60
2022-08-23T09:25:47.275Z,40.30
2022-08-23T09:28:32.576Z,40.20
2022-08-23T09:31:59.270Z,40.20
2022-08-23T09:34:42.393Z,40.00
2022-08-23T09:37:31.264Z,39.60
2022-08-23T09:40:43.289Z,39.40
2022-08-23T09:43:34.273Z,39.40
2022-08-23T09:46:21.273Z,39.60
2022-08-23T09:49:28.582Z,39.80
2022-08-23T09:52:26.266Z,40.10
2022-08-23T09:55:43.248Z,40.00
2022-08-23T09:58:42.278Z,39.90
2022-08-23T10:01:38.204Z,39.30
2022-08-23T10:04:57.381Z,39.10
2022-08-23T10:07:51.764Z,38.90
2022-08-23T10:10:37.272Z,38.40
2022-08-23T10:13:25.252Z,38.00
2022-08-23T10:16:24.474Z,37.80
2022-08-23T10:19:41.265Z,37.70
2022-08-23T10:22:28.530Z,37.40
2022-08-23T10:25:44.273Z,37.40
2022-08-23T10:29:06.316Z,37.50
2022-08-23T10:32:09.275Z,37.60
2022-08-23T10:35:29.339Z,37.50
2022-08-23T10:38:38.280Z,37.40
2022-08-23T10:41:57.345Z,37.60
2022-08-23T10:45:08.297Z,37.90
2022-08-23T10:48:03.380Z,38.30
2022-08-23T10:51:06.270Z,38.60
2022-08-23T10:53:48.750Z,38.60
2022-08-23T10:56:35.281Z,38.20
2022-08-23T10:59:33.260Z,37.70
2022-08-23T11:02:36.073Z,37.40
2022-08-23T11:05:45.311Z,37.30
2022-08-23T11:08:47.378Z,37.00
2022-08-23T11:11:46.362Z,36.80
2022-08-23T11:14:48.284Z,36.80
2022-08-23T11:17:36.353Z,36.70
2022-08-23T11:20:57.282Z,36.50
2022-08-23T11:24:29.312Z,36.50
2022-08-23T11:27:31.291Z,36.70
2022-08-23T11:30:46.315Z,36.60
2022-08-23T11:34:05.776Z,36.50
2022-08-23T11:36:52.296Z,36.70
2022-08-23T11:40:06.501Z,36.60
2022-08-23T11:42:46.285Z,36.70
2022-08-23T11:45:47.102Z,36.80
2022-08-23T11:48:56.297Z,37.00
2022-08-23T11:52:21.398Z,37.00
2022-08-23T11:55:16.293Z,37.00
2022-08-23T11:58:18.468Z,36.80
2022-08-23T12:01:09.304Z,36.70
2022-08-23T12:04:17.286Z,36.50
2022-08-23T12:07:03.702Z,36.60
2022-08-23T12:09:57.293Z,36.80
2022-08-23T12:12:47.390Z,37.00
2022-08-23T12:15:54.309Z,37.00
2022-08-23T12:18:47.624Z,36.90
2022-08-23T12:21:57.326Z,36.90
2022-08-23T12:25:06.293Z,37.20
2022-08-23T12:27:59.300Z,37.30
2022-08-23T12:30:53.371Z,37.20
2022-08-23T12:34:17.197Z,38.10
2022-08-23T12:37:20.297Z,37.30
2022-08-23T12:40:10.366Z,38.30
2022-08-23T12:42:51.376Z,38.30
2022-08-23T12:45:51.357Z,37.40
2022-08-23T12:48:44.297Z,37.40
2022-08-23T12:51:24.877Z,37.50
2022-08-23T12:54:27.352Z,37.50
2022-08-23T12:57:33.391Z,37.60
2022-08-23T13:00:40.323Z,37.70
2022-08-23T13:03:40.305Z,37.80
2022-08-23T13:06:25.601Z,38.20
2022-08-23T13:09:20.301Z,38.30
2022-08-23T13:12:00.444Z,38.60
2022-08-23T13:14:59.305Z,38.80
2022-08-23T13:17:43.370Z,38.90
2022-08-23T13:20:31.320Z,38.90
2022-08-23T13:23:24.296Z,39.00
2022-08-23T13:26:28.822Z,39.10
2022-08-23T13:29:18.345Z,39.30
2022-08-23T13:32:11.333Z,39.30
2022-08-23T13:35:00.307Z,39.50
2022-08-23T13:37:53.510Z,39.60
2022-08-23T13:40:37.317Z,39.70
2022-08-23T13:43:52.307Z,39.70
2022-08-23T13:46:40.407Z,39.90
2022-08-23T13:49:26.340Z,40.00
2022-08-23T13:55:17.324Z,40.20
2022-08-23T13:58:05.650Z,40.20
2022-08-23T14:00:45.732Z,40.30
2022-08-23T14:03:41.434Z,40.50
2022-08-23T14:06:21.334Z,41.60
2022-08-23T14:09:08.369Z,40.70
2022-08-23T14:11:48.330Z,40.80
2022-08-23T14:14:38.409Z,40.90
2022-08-23T14:17:20.613Z,40.90
2022-08-23T14:23:12.127Z,41.10
2022-08-23T14:25:55.801Z,41.20
2022-08-23T14:28:44.573Z,41.20
2022-08-23T14:31:31.338Z,41.20
2022-08-23T14:34:18.332Z,41.30
2022-08-23T14:38:00.686Z,41.40
2022-08-23T14:40:06.408Z,41.50
2022-08-23T14:42:54.440Z,41.50
2022-08-23T14:45:34.329Z,41.60
2022-08-23T14:48:21.325Z,41.70
2022-08-23T14:51:09.337Z,41.70
2022-08-23T14:53:50.462Z,41.80
2022-08-23T14:56:37.379Z,41.90
2022-08-23T14:59:17.996Z,42.00
2022-08-23T15:02:06.320Z,41.90
2022-08-23T15:04:48.031Z,42.00
2022-08-23T15:07:35.394Z,42.10
2022-08-23T15:13:32.494Z,42.20
2022-08-23T15:16:16.574Z,42.20
2022-08-23T15:19:04.401Z,42.30
2022-08-23T15:21:44.893Z,42.20
2022-08-23T15:24:31.342Z,42.10
2022-08-23T15:27:18.467Z,42.00
2022-08-23T15:29:58.358Z,42.10
2022-08-23T15:32:52.520Z,42.10
2022-08-23T15:35:41.349Z,42.20
2022-08-23T15:38:32.097Z,42.30
2022-08-23T15:41:12.360Z,42.30
2022-08-23T15:43:59.347Z,42.40
2022-08-23T15:46:39.463Z,42.70
2022-08-23T15:49:27.382Z,42.80
2022-08-23T15:52:07.577Z,42.70
2022-08-23T15:54:54.353Z,42.70
2022-08-23T15:57:42.389Z,42.80
2022-08-23T16:00:30.371Z,42.90
2022-08-23T16:03:20.176Z,43.00
2022-08-23T16:06:08.393Z,43.10
2022-08-23T16:08:52.396Z,43.20
2022-08-23T16:11:39.410Z,43.20
2022-08-23T16:14:19.362Z,43.20
2022-08-23T16:17:00.754Z,43.30
2022-08-23T16:19:47.355Z,43.50
2022-08-23T16:22:34.419Z,43.70
2022-08-23T16:25:21.337Z,43.80
2022-08-23T16:28:08.353Z,44.00
2022-08-23T16:30:48.940Z,44.10
2022-08-23T16:33:35.398Z,45.30
2022-08-23T16:36:26.247Z,44.40
2022-08-23T16:39:10.350Z,44.50
2022-08-23T16:41:57.550Z,44.70
2022-08-23T16:44:39.344Z,44.80
2022-08-23T16:47:26.360Z,44.90
2022-08-23T16:50:06.418Z,45.10
2022-08-23T16:52:53.383Z,45.20
2022-08-23T16:55:33.423Z,45.30
2022-08-23T16:58:20.366Z,45.40
2022-08-23T17:01:00.481Z,45.60
2022-08-23T17:03:48.360Z,45.70
2022-08-23T17:06:28.417Z,45.70
2022-08-23T17:09:15.379Z,45.80
2022-08-23T17:11:58.488Z,45.90
2022-08-23T17:14:45.375Z,45.90
2022-08-23T17:17:25.414Z,46.00
2022-08-23T17:20:13.368Z,46.10
2022-08-23T17:22:55.108Z,46.30
2022-08-23T17:25:43.436Z,46.30
2022-08-23T17:28:24.474Z,46.40
2022-08-23T17:31:11.378Z,46.40
2022-08-23T17:33:58.376Z,46.50
2022-08-23T17:36:49.704Z,46.50
2022-08-23T17:39:39.374Z,47.60
2022-08-23T17:42:27.455Z,46.60
2022-08-23T17:45:07.382Z,47.70
2022-08-23T17:47:54.382Z,46.70
2022-08-23T17:50:34.665Z,46.90
2022-08-23T17:53:22.374Z,46.90
2022-08-23T17:56:02.444Z,46.90
2022-08-23T17:58:52.386Z,47.00
2022-08-23T18:01:32.507Z,47.00
2022-08-23T18:04:19.437Z,47.10
2022-08-23T18:06:59.482Z,47.20
2022-08-23T18:09:48.547Z,47.20
2022-08-23T18:12:28.441Z,47.30
2022-08-23T18:15:17.384Z,47.50
2022-08-23T18:17:58.286Z,47.60
2022-08-23T18:20:45.381Z,47.60
2022-08-23T18:23:32.401Z,47.60
2022-08-23T18:26:38.950Z,47.80
2022-08-23T18:29:23.373Z,48.00
2022-08-23T18:32:07.076Z,48.00
2022-08-23T18:34:53.379Z,48.20
2022-08-23T18:37:40.673Z,49.30
2022-08-23T18:40:21.406Z,48.40
2022-08-23T18:43:01.959Z,48.50
2022-08-23T18:45:48.449Z,48.70
2022-08-23T18:48:42.383Z,48.70
2022-08-23T18:51:37.388Z,48.90
2022-08-23T18:54:17.609Z,49.00
2022-08-23T18:57:04.405Z,49.00
2022-08-23T18:59:44.469Z,49.00
2022-08-23T19:02:31.377Z,49.00
2022-08-23T19:05:12.942Z,49.20
2022-08-23T19:07:59.372Z,49.20
2022-08-23T19:10:40.533Z,49.30
2022-08-23T19:13:27.388Z,49.40
2022-08-23T19:16:07.512Z,49.50
2022-08-23T19:18:56.385Z,49.40
2022-08-23T19:21:37.456Z,49.50
2022-08-23T19:24:31.403Z,49.70
2022-08-23T19:27:18.435Z,50.00
2022-08-23T19:29:58.401Z,50.10
2022-08-23T19:32:45.521Z,50.20
2022-08-23T19:35:25.381Z,50.40
2022-08-23T19:38:06.222Z,50.30
2022-08-23T19:40:53.404Z,50.30
2022-08-23T19:43:35.473Z,50.30
2022-08-23T19:46:24.418Z,50.30
2022-08-23T19:49:11.487Z,50.20
2022-08-23T19:51:51.394Z,50.10
2022-08-23T19:54:38.464Z,50.00
2022-08-23T19:57:18.449Z,50.10
2022-08-23T20:00:07.586Z,50.00
2022-08-23T20:02:48.520Z,50.00
2022-08-23T20:05:35.528Z,50.00
2022-08-23T20:08:15.589Z,50.10
2022-08-23T20:11:02.403Z,50.10
2022-08-23T20:13:49.406Z,50.30
2022-08-23T20:16:36.681Z,50.40
2022-08-23T20:19:19.602Z,50.20
2022-08-23T20:22:26.420Z,50.40
2022-08-23T20:25:15.816Z,50.40
2022-08-23T20:27:55.412Z,50.50
2022-08-23T20:30:43.452Z,50.70
2022-08-23T20:33:23.394Z,50.60
2022-08-23T20:36:10.406Z,50.60
2022-08-23T20:38:57.390Z,50.80
2022-08-23T20:41:39.678Z,51.00
2022-08-23T20:44:26.416Z,51.20
2022-08-23T20:47:06.963Z,51.50
2022-08-23T20:49:53.401Z,51.40
2022-08-23T20:52:40.414Z,51.40
2022-08-23T20:55:20.511Z,51.30
2022-08-23T20:58:07.406Z,51.30
2022-08-23T21:00:47.580Z,51.40
2022-08-23T21:03:36.407Z,51.40
2022-08-23T21:06:23.461Z,51.60
2022-08-23T21:09:12.418Z,51.60
2022-08-23T21:11:54.530Z,51.60
2022-08-23T21:14:41.415Z,51.60
2022-08-23T21:17:43.402Z,51.70
2022-08-23T21:20:34.427Z,51.70
2022-08-23T21:23:14.461Z,51.70
2022-08-23T21:26:03.411Z,51.80
2022-08-23T21:28:50.485Z,51.90
2022-08-23T21:31:31.579Z,51.90
2022-08-23T21:34:19.456Z,52.00
2022-08-23T21:37:06.408Z,52.00
2022-08-23T21:39:46.524Z,52.20
2022-08-23T21:42:33.421Z,52.10
2022-08-23T21:45:14.460Z,52.30
2022-08-23T21:48:02.453Z,52.30
2022-08-23T21:50:42.570Z,52.50
2022-08-23T21:53:29.434Z,52.50
2022-08-23T21:56:09.498Z,52.60
2022-08-23T21:58:56.454Z,52.60
2022-08-23T22:01:38.680Z,52.80
2022-08-23T22:04:25.415Z,52.80
2022-08-23T22:07:05.489Z,52.90
2022-08-23T22:09:53.437Z,52.90
2022-08-23T22:12:40.445Z,53.00
2022-08-23T22:15:27.567Z,53.20
2022-08-23T22:18:09.448Z,53.20
2022-08-23T22:20:50.077Z,53.40
2022-08-23T22:23:36.438Z,54.50
2022-08-23T22:26:23.436Z,53.50
2022-08-23T22:29:03.493Z,53.60
2022-08-23T22:31:50.449Z,53.60
2022-08-23T22:34:37.424Z,53.80
2022-08-23T22:37:25.243Z,53.70
2022-08-23T22:40:04.477Z,54.00
2022-08-23T22:42:51.475Z,54.00
2022-08-23T22:45:31.429Z,54.20
2022-08-23T22:48:18.440Z,54.30
2022-08-23T22:51:09.550Z,54.50
2022-08-23T22:53:59.465Z,54.50
2022-08-23T22:56:53.416Z,54.70
2022-08-23T22:59:40.584Z,54.90
2022-08-23T23:02:21.423Z,55.00
2022-08-23T23:05:08.445Z,55.00
2022-08-23T23:08:07.424Z,55.10
2022-08-23T23:10:54.441Z,55.20
2022-08-23T23:13:43.447Z,55.50
2022-08-23T23:16:32.530Z,55.50
2022-08-23T23:19:31.449Z,55.80
2022-08-23T23:22:18.488Z,55.80
2022-08-23T23:25:08.445Z,55.90
2022-08-23T23:27:55.441Z,56.00
2022-08-23T23:30:39.585Z,56.10
2022-08-23T23:33:27.448Z,56.20
2022-08-23T23:36:16.583Z,56.30
2022-08-23T23:38:58.469Z,56.30
2022-08-23T23:41:39.263Z,56.30
2022-08-23T23:44:31.491Z,56.50
2022-08-23T23:47:25.441Z,56.50
2022-08-23T23:50:13.502Z,56.50
2022-08-23T23:52:53.442Z,56.70
2022-08-23T23:55:41.440Z,56.70
2022-08-23T23:58:21.509Z,56.80
